createdAt,value
2023-09-06T00:00:30.674Z,16.15
2023-09-06T00:03:34.166Z,16.11
2023-09-06T00:06:36.844Z,16.05
2023-09-06T00:09:41.535Z,16.00
2023-09-06T00:12:46.387Z,15.98
2023-09-06T00:15:51.008Z,15.96
2023-09-06T00:18:53.873Z,15.84
2023-09-06T00:22:00.387Z,15.84
2023-09-06T00:25:03.605Z,15.69
2023-09-06T00:28:08.295Z,15.78
2023-09-06T00:31:10.861Z,15.66
2023-09-06T00:34:15.710Z,15.71
2023-09-06T00:37:18.517Z,15.57
2023-09-06T00:40:25.095Z,15.65
2023-09-06T00:43:27.525Z,15.64
2023-09-06T00:46:30.641Z,15.69
2023-09-06T00:49:33.567Z,15.73
2023-09-06T00:52:36.671Z,15.75
2023-09-06T00:55:39.390Z,15.70
2023-09-06T00:58:50.113Z,15.68
2023-09-06T01:01:53.675Z,15.60
2023-09-06T01:04:56.455Z,15.57
2023-09-06T01:08:04.304Z,15.53
2023-09-06T01:11:15.956Z,15.52
2023-09-06T01:14:18.480Z,15.52
2023-09-06T01:17:23.501Z,15.52
2023-09-06T01:20:35.082Z,15.56
2023-09-06T01:23:42.831Z,15.59
2023-09-06T01:26:45.557Z,15.58
2023-09-06T01:29:48.652Z,15.61
2023-09-06T01:32:51.618Z,15.59
2023-09-06T01:35:55.257Z,15.46
2023-09-06T01:38:58.674Z,15.39
2023-09-06T01:42:01.429Z,15.32
2023-09-06T01:45:04.332Z,15.29
2023-09-06T01:48:07.417Z,15.15
2023-09-06T01:51:10.377Z,15.10
2023-09-06T01:54:13.321Z,15.04
2023-09-06T01:57:17.144Z,15.03
2023-09-06T02:00:23.070Z,15.04
2023-09-06T02:03:26.475Z,15.05
2023-09-06T02:06:29.385Z,15.04
2023-09-06T02:09:32.014Z,15.05
2023-09-06T02:12:35.191Z,15.03
2023-09-06T02:15:37.882Z,15.04
2023-09-06T02:18:41.424Z,15.03
2023-09-06T02:21:44.452Z,15.01
2023-09-06T02:24:47.221Z,14.98
2023-09-06T02:27:50.650Z,14.97
2023-09-06T02:30:55.364Z,14.99
2023-09-06T02:33:58.571Z,14.98
2023-09-06T02:37:02.135Z,14.98
2023-09-06T02:40:15.377Z,15.00
2023-09-06T02:43:18.102Z,15.03
2023-09-06T02:46:21.000Z,15.02
2023-09-06T02:49:27.391Z,15.00
2023-09-06T02:52:31.748Z,15.01
2023-09-06T02:55:36.604Z,14.97
2023-09-06T02:58:40.336Z,14.89
2023-09-06T03:01:46.575Z,14.86
2023-09-06T03:04:58.604Z,14.81
2023-09-06T03:08:01.718Z,14.83
2023-09-06T03:11:07.212Z,14.83
2023-09-06T03:14:11.604Z,14.86
2023-09-06T03:17:19.486Z,14.82
2023-09-06T03:20:32.756Z,14.86
2023-09-06T03:23:37.101Z,14.87
2023-09-06T03:26:45.281Z,14.97
2023-09-06T03:29:52.639Z,14.94
2023-09-06T03:32:55.650Z,14.81
2023-09-06T03:35:59.109Z,14.87
2023-09-06T03:39:02.365Z,14.92
2023-09-06T03:42:09.662Z,14.86
2023-09-06T03:45:16.709Z,14.79
2023-09-06T03:48:21.942Z,14.82
2023-09-06T03:51:25.809Z,14.81
2023-09-06T03:54:28.901Z,14.86
2023-09-06T03:57:32.521Z,14.91
2023-09-06T04:00:36.211Z,14.88
2023-09-06T04:03:40.287Z,14.89
2023-09-06T04:06:44.505Z,14.83
2023-09-06T04:09:48.293Z,14.84
2023-09-06T04:12:52.305Z,14.82
2023-09-06T04:15:55.089Z,14.78
2023-09-06T04:18:59.067Z,14.76
2023-09-06T04:22:02.971Z,14.79
2023-09-06T04:25:07.898Z,14.85
2023-09-06T04:28:14.835Z,14.81
2023-09-06T04:31:19.020Z,14.83
2023-09-06T04:34:23.562Z,14.82
2023-09-06T04:37:25.974Z,14.87
2023-09-06T04:40:30.542Z,14.91
2023-09-06T04:43:33.230Z,14.93
2023-09-06T04:46:36.482Z,15.05
2023-09-06T04:49:40.647Z,15.16
2023-09-06T04:52:48.472Z,15.27
2023-09-06T04:55:51.291Z,15.46
2023-09-06T04:58:57.122Z,15.49
2023-09-06T05:01:59.635Z,15.65
2023-09-06T05:05:03.269Z,15.78
2023-09-06T05:08:07.212Z,15.89
2023-09-06T05:11:09.960Z,16.09
2023-09-06T05:14:12.816Z,16.13
2023-09-06T05:17:16.303Z,16.28
2023-09-06T05:20:36.712Z,16.40
2023-09-06T05:23:40.244Z,16.64
2023-09-06T05:26:43.171Z,16.76
2023-09-06T05:29:46.719Z,16.95
2023-09-06T05:32:50.988Z,17.25
2023-09-06T05:35:55.914Z,17.24
2023-09-06T05:38:58.441Z,17.52
2023-09-06T05:42:02.181Z,17.85
2023-09-06T05:45:09.494Z,17.77
2023-09-06T05:48:16.768Z,17.63
2023-09-06T05:51:19.725Z,17.69
2023-09-06T05:54:23.227Z,17.97
2023-09-06T05:57:25.895Z,18.32
2023-09-06T06:00:30.241Z,19.23
2023-09-06T06:03:34.272Z,21.20
2023-09-06T06:06:37.599Z,22.76
2023-09-06T06:09:41.287Z,22.76
2023-09-06T06:12:44.506Z,23.35
2023-09-06T06:15:47.275Z,23.61
2023-09-06T06:18:50.120Z,24.16
2023-09-06T06:21:53.105Z,24.56
2023-09-06T06:25:01.074Z,25.00
2023-09-06T06:28:04.189Z,26.36
2023-09-06T06:31:07.818Z,25.68
2023-09-06T06:34:11.409Z,25.98
2023-09-06T06:37:13.908Z,26.04
2023-09-06T06:40:17.656Z,26.66
2023-09-06T06:43:20.174Z,27.51
2023-09-06T06:46:34.527Z,27.96
2023-09-06T06:49:37.211Z,28.20
2023-09-06T06:52:45.441Z,27.24
2023-09-06T06:55:48.416Z,27.05
2023-09-06T06:58:52.166Z,28.18
2023-09-06T07:01:55.011Z,28.54
2023-09-06T07:04:59.140Z,28.29
2023-09-06T07:08:03.491Z,27.14
2023-09-06T07:11:08.247Z,28.45
2023-09-06T07:14:11.197Z,27.27
2023-09-06T07:17:14.002Z,28.31
2023-09-06T07:20:16.519Z,28.38
2023-09-06T07:23:19.318Z,28.02
2023-09-06T07:26:22.824Z,28.70
2023-09-06T07:29:25.723Z,29.05
2023-09-06T07:32:28.224Z,29.23
2023-09-06T07:35:33.741Z,28.82
2023-09-06T07:38:36.920Z,29.16
2023-09-06T07:41:42.485Z,29.36
2023-09-06T07:44:45.272Z,28.65
2023-09-06T07:47:48.383Z,29.39
2023-09-06T07:50:51.441Z,29.95
2023-09-06T07:53:55.014Z,28.79
2023-09-06T07:56:57.521Z,29.40
2023-09-06T08:00:00.228Z,28.60
2023-09-06T08:03:04.181Z,29.18
2023-09-06T08:06:08.663Z,29.13
2023-09-06T08:09:11.868Z,28.29
2023-09-06T08:12:14.924Z,28.72
2023-09-06T08:15:18.432Z,28.39
2023-09-06T08:18:21.364Z,27.65
2023-09-06T08:21:23.975Z,28.02
2023-09-06T08:24:26.798Z,28.65
2023-09-06T08:27:29.703Z,28.20
2023-09-06T08:30:32.889Z,29.12
2023-09-06T08:33:35.808Z,28.17
2023-09-06T08:36:38.863Z,28.19
2023-09-06T08:39:41.800Z,28.70
2023-09-06T08:42:46.313Z,28.03
2023-09-06T08:45:49.970Z,29.11
2023-09-06T08:48:54.107Z,28.59
2023-09-06T08:51:57.584Z,29.21
2023-09-06T08:55:00.632Z,29.12
2023-09-06T08:58:04.702Z,28.64
2023-09-06T09:01:07.817Z,29.32
2023-09-06T09:04:10.963Z,29.66
2023-09-06T09:07:14.566Z,29.24
2023-09-06T09:10:17.931Z,28.50
2023-09-06T09:13:20.987Z,28.91
2023-09-06T09:16:24.798Z,28.91
2023-09-06T09:19:28.247Z,29.03
2023-09-06T09:22:36.229Z,28.68
2023-09-06T09:25:50.691Z,28.89
2023-09-06T09:28:53.230Z,29.20
2023-09-06T09:32:04.163Z,28.58
2023-09-06T09:35:12.955Z,28.67
2023-09-06T09:38:15.799Z,28.92
2023-09-06T09:41:18.814Z,28.66
2023-09-06T09:44:22.108Z,28.89
2023-09-06T09:50:35.313Z,28.42
2023-09-06T09:53:40.915Z,28.38
2023-09-06T09:56:53.255Z,28.17
2023-09-06T09:59:57.390Z,28.34
2023-09-06T10:03:01.730Z,28.34
2023-09-06T10:06:05.569Z,28.41
2023-09-06T10:09:14.108Z,27.99
2023-09-06T10:12:17.815Z,28.83
2023-09-06T10:15:24.770Z,28.22
2023-09-06T10:18:29.065Z,28.31
2023-09-06T10:21:33.995Z,28.40
2023-09-06T10:24:37.468Z,28.72
2023-09-06T10:28:09.886Z,29.63
2023-09-06T10:31:13.752Z,29.10
2023-09-06T10:34:16.969Z,29.24
2023-09-06T10:37:19.807Z,29.11
2023-09-06T10:40:25.105Z,28.60
2023-09-06T10:43:30.049Z,29.19
2023-09-06T10:46:37.301Z,29.69
2023-09-06T10:49:40.666Z,29.22
2023-09-06T10:53:04.024Z,29.18
2023-09-06T10:56:07.871Z,29.77
2023-09-06T10:59:20.849Z,30.26
2023-09-06T11:02:23.970Z,29.17
2023-09-06T11:05:52.883Z,29.06
2023-09-06T11:09:04.905Z,29.18
2023-09-06T11:12:08.044Z,29.80
2023-09-06T11:15:11.565Z,29.18
2023-09-06T11:18:15.466Z,29.52
2023-09-06T11:24:44.835Z,30.00
2023-09-06T11:27:48.935Z,29.41
2023-09-06T11:30:52.176Z,29.53
2023-09-06T11:33:59.632Z,29.29
2023-09-06T11:37:04.802Z,29.59
2023-09-06T11:40:16.389Z,30.09
2023-09-06T11:43:24.339Z,30.05
2023-09-06T11:46:28.535Z,29.71
2023-09-06T11:49:34.050Z,29.52
2023-09-06T11:52:51.364Z,29.36
2023-09-06T11:56:02.915Z,29.38
2023-09-06T11:59:08.295Z,29.22
2023-09-06T12:02:14.394Z,29.69
2023-09-06T12:05:29.255Z,29.96
2023-09-06T12:08:39.508Z,30.01
2023-09-06T12:11:42.810Z,29.56
2023-09-06T12:14:45.618Z,29.16
2023-09-06T12:17:48.865Z,29.32
2023-09-06T12:20:51.901Z,29.56
2023-09-06T12:23:54.715Z,28.82
2023-09-06T12:26:59.338Z,28.91
2023-09-06T12:30:02.696Z,28.30
2023-09-06T12:33:05.793Z,28.28
2023-09-06T12:36:12.105Z,28.23
2023-09-06T12:39:15.007Z,28.42
2023-09-06T12:42:17.912Z,28.39
2023-09-06T12:45:29.748Z,28.14
2023-09-06T12:48:33.167Z,28.05
2023-09-06T12:51:38.223Z,27.89
2023-09-06T12:54:41.337Z,28.37
2023-09-06T12:57:44.453Z,28.26
2023-09-06T13:00:48.009Z,27.71
2023-09-06T13:03:50.726Z,27.79
2023-09-06T13:06:53.799Z,27.56
2023-09-06T13:09:58.347Z,27.53
2023-09-06T13:13:01.438Z,27.48
2023-09-06T13:16:07.444Z,27.60
2023-09-06T13:19:15.715Z,27.68
2023-09-06T13:22:18.707Z,27.55
2023-09-06T13:25:21.798Z,27.58
2023-09-06T13:28:24.664Z,27.42
2023-09-06T13:31:27.669Z,27.28
2023-09-06T13:34:30.680Z,27.23
2023-09-06T13:37:33.561Z,27.38
2023-09-06T13:40:36.437Z,27.37
2023-09-06T13:43:39.517Z,27.25
2023-09-06T13:46:42.728Z,27.19
2023-09-06T13:49:45.598Z,27.17
2023-09-06T13:52:48.343Z,27.24
2023-09-06T13:55:51.190Z,27.19
2023-09-06T13:58:53.795Z,27.19
2023-09-06T14:01:56.854Z,27.12
2023-09-06T14:04:59.808Z,27.11
2023-09-06T14:08:03.877Z,27.23
2023-09-06T14:11:06.932Z,27.08
2023-09-06T14:14:10.038Z,27.01
2023-09-06T14:17:32.860Z,26.93
2023-09-06T14:20:56.306Z,26.90
2023-09-06T14:23:59.244Z,26.86
2023-09-06T14:27:18.248Z,26.90
2023-09-06T14:30:21.089Z,26.85
2023-09-06T14:33:23.916Z,26.88
2023-09-06T14:36:27.198Z,26.90
2023-09-06T14:39:30.669Z,26.88
2023-09-06T14:42:33.830Z,26.82
2023-09-06T14:45:39.755Z,26.72
2023-09-06T14:48:42.960Z,26.77
2023-09-06T14:51:46.702Z,26.87
2023-09-06T14:54:49.908Z,26.90
2023-09-06T14:57:52.452Z,26.81
2023-09-06T15:00:56.034Z,26.72
2023-09-06T15:03:58.789Z,26.74
2023-09-06T15:07:01.980Z,26.69
2023-09-06T15:10:05.495Z,26.66
2023-09-06T15:13:13.124Z,26.57
2023-09-06T15:16:16.159Z,26.52
2023-09-06T15:19:19.260Z,26.59
2023-09-06T15:22:36.653Z,26.49
2023-09-06T15:25:41.897Z,26.41
2023-09-06T15:28:45.409Z,26.38
2023-09-06T15:31:48.303Z,26.41
2023-09-06T15:34:52.307Z,26.35
2023-09-06T15:38:04.850Z,26.32
2023-09-06T15:41:12.777Z,26.30
2023-09-06T15:44:17.263Z,26.35
2023-09-06T15:47:20.294Z,26.23
2023-09-06T15:50:26.154Z,26.28
2023-09-06T15:53:28.644Z,26.19
2023-09-06T15:56:31.444Z,26.19
2023-09-06T15:59:34.090Z,26.13
2023-09-06T16:02:41.182Z,26.02
2023-09-06T16:05:44.809Z,26.00
2023-09-06T16:08:47.539Z,25.94
2023-09-06T16:11:55.998Z,25.89
2023-09-06T16:14:59.403Z,25.66
2023-09-06T16:18:05.729Z,25.52
2023-09-06T16:21:08.642Z,25.38
2023-09-06T16:24:12.076Z,25.18
2023-09-06T16:27:14.935Z,25.05
2023-09-06T16:30:19.363Z,24.89
2023-09-06T16:33:22.198Z,24.88
2023-09-06T16:36:25.508Z,24.72
2023-09-06T16:39:28.309Z,24.55
2023-09-06T16:42:31.890Z,24.37
2023-09-06T16:45:34.389Z,24.16
2023-09-06T16:48:37.151Z,24.04
2023-09-06T16:51:39.852Z,23.93
2023-09-06T16:54:42.893Z,23.88
2023-09-06T16:57:45.404Z,23.76
2023-09-06T17:00:48.478Z,23.58
2023-09-06T17:03:51.253Z,23.44
2023-09-06T17:06:54.002Z,23.20
2023-09-06T17:09:56.454Z,22.93
2023-09-06T17:12:59.646Z,22.71
2023-09-06T17:16:02.242Z,22.47
2023-09-06T17:19:10.556Z,22.26
2023-09-06T17:22:13.637Z,22.11
2023-09-06T17:25:17.263Z,21.96
2023-09-06T17:28:19.793Z,21.79
2023-09-06T17:31:22.570Z,21.65
2023-09-06T17:34:25.092Z,21.51
2023-09-06T17:37:28.145Z,21.39
2023-09-06T17:40:30.869Z,21.29
2023-09-06T17:43:34.144Z,21.18
2023-09-06T17:46:37.238Z,21.11
2023-09-06T17:49:40.998Z,21.02
2023-09-06T17:52:43.772Z,20.91
2023-09-06T17:55:48.816Z,20.81
2023-09-06T17:58:51.370Z,20.71
2023-09-06T18:01:55.092Z,20.62
2023-09-06T18:04:58.326Z,20.52
2023-09-06T18:08:02.016Z,20.43
2023-09-06T18:11:09.679Z,20.35
2023-09-06T18:14:12.736Z,20.24
2023-09-06T18:17:15.766Z,20.16
2023-09-06T18:20:18.833Z,20.08
2023-09-06T18:23:22.776Z,20.02
2023-09-06T18:26:25.665Z,19.93
2023-09-06T18:29:28.315Z,19.85
2023-09-06T18:32:32.721Z,19.78
2023-09-06T18:35:36.437Z,19.72
2023-09-06T18:38:39.388Z,19.65
2023-09-06T18:41:43.245Z,19.59
2023-09-06T18:44:45.858Z,19.55
2023-09-06T18:47:51.540Z,19.50
2023-09-06T18:50:54.202Z,19.45
2023-09-06T18:53:57.880Z,19.45
2023-09-06T18:57:00.638Z,19.35
2023-09-06T19:00:12.206Z,19.29
2023-09-06T19:03:15.969Z,19.25
2023-09-06T19:06:19.220Z,19.17
2023-09-06T19:09:22.407Z,19.07
2023-09-06T19:12:25.408Z,19.00
2023-09-06T19:15:29.699Z,18.97
2023-09-06T19:18:32.860Z,18.89
2023-09-06T19:21:36.300Z,18.84
2023-09-06T19:24:39.765Z,18.76
2023-09-06T19:27:44.093Z,18.68
2023-09-06T19:30:51.802Z,18.63
2023-09-06T19:33:54.526Z,18.60
2023-09-06T19:36:58.105Z,18.59
2023-09-06T19:40:01.592Z,18.56
2023-09-06T19:43:05.115Z,18.54
2023-09-06T19:46:08.346Z,18.50
2023-09-06T19:49:11.385Z,18.48
2023-09-06T19:52:14.028Z,18.46
2023-09-06T19:55:19.212Z,18.43
2023-09-06T19:58:21.970Z,18.43
2023-09-06T20:01:24.931Z,18.38
2023-09-06T20:04:29.780Z,18.34
2023-09-06T20:07:32.371Z,18.27
2023-09-06T20:10:44.071Z,18.18
2023-09-06T20:13:46.675Z,18.10
2023-09-06T20:16:49.480Z,18.00
2023-09-06T20:19:52.578Z,17.96
2023-09-06T20:22:55.517Z,17.94
2023-09-06T20:25:57.921Z,17.90
2023-09-06T20:29:00.858Z,17.85
2023-09-06T20:32:03.485Z,17.82
2023-09-06T20:35:06.436Z,17.78
2023-09-06T20:38:09.043Z,17.79
2023-09-06T20:41:11.772Z,17.79
2023-09-06T20:44:14.266Z,17.76
2023-09-06T20:47:17.036Z,17.68
2023-09-06T20:50:20.197Z,17.66
2023-09-06T20:53:22.980Z,17.63
2023-09-06T20:56:25.799Z,17.60
2023-09-06T20:59:28.481Z,17.41
2023-09-06T21:02:31.130Z,17.34
2023-09-06T21:05:34.169Z,17.29
2023-09-06T21:08:36.714Z,17.24
2023-09-06T21:11:41.188Z,17.18
2023-09-06T21:14:43.638Z,17.14
2023-09-06T21:17:46.677Z,17.07
2023-09-06T21:20:49.475Z,17.03
2023-09-06T21:23:52.282Z,16.94
2023-09-06T21:26:54.990Z,16.86
2023-09-06T21:29:57.692Z,16.83
2023-09-06T21:33:03.688Z,16.82
2023-09-06T21:36:06.658Z,16.69
2023-09-06T21:39:10.795Z,16.75
2023-09-06T21:42:13.554Z,16.70
2023-09-06T21:45:16.215Z,16.68
2023-09-06T21:48:19.125Z,16.67
2023-09-06T21:51:21.951Z,16.66
2023-09-06T21:54:24.916Z,16.65
2023-09-06T21:57:27.634Z,16.63
2023-09-06T22:00:31.569Z,16.60
2023-09-06T22:03:53.040Z,16.59
2023-09-06T22:07:14.119Z,16.59
2023-09-06T22:10:34.799Z,16.57
2023-09-06T22:13:56.058Z,16.57
2023-09-06T22:17:02.069Z,16.51
2023-09-06T22:20:06.680Z,16.38
2023-09-06T22:23:09.827Z,16.25
2023-09-06T22:26:12.650Z,16.26
2023-09-06T22:29:16.005Z,16.24
2023-09-06T22:32:18.722Z,16.21
2023-09-06T22:35:21.573Z,16.09
2023-09-06T22:38:24.047Z,16.05
2023-09-06T22:41:26.870Z,15.98
2023-09-06T22:44:29.578Z,15.99
2023-09-06T22:47:32.640Z,15.93
2023-09-06T22:50:39.192Z,15.92
2023-09-06T22:53:42.013Z,15.98
2023-09-06T22:56:46.088Z,16.00
2023-09-06T22:59:49.034Z,16.05
2023-09-06T23:02:51.925Z,16.05
2023-09-06T23:05:54.880Z,16.12
2023-09-06T23:09:01.696Z,16.18
2023-09-06T23:12:06.420Z,16.00
2023-09-06T23:15:09.743Z,16.12
2023-09-06T23:18:12.467Z,16.21
2023-09-06T23:21:18.661Z,16.22
2023-09-06T23:24:23.416Z,16.09
2023-09-06T23:27:28.850Z,16.06
2023-09-06T23:30:36.166Z,16.10
2023-09-06T23:33:43.856Z,16.20
2023-09-06T23:36:46.921Z,16.31
2023-09-06T23:39:50.088Z,16.39
2023-09-06T23:42:54.756Z,16.46
2023-09-06T23:45:57.465Z,16.47
2023-09-06T23:49:00.598Z,16.44
2023-09-06T23:52:03.705Z,16.44
2023-09-06T23:55:07.395Z,16.52
2023-09-06T23:58:10.068Z,16.52
